Time;durP1;ratioP1;P1;durP2;ratioP2;P2;SDS_P1;SDS_P2;PMS_P1;PMS_P2;Temp;Humidity;BMP_temperature;BMP_pressure;BME280_temperature;BME280_humidity;BME280_pressure;Samples;Min_cycle;Max_cycle;Signal;HPM_P1;HPM_P2
2022/09/27 00:01:04;;;;;;;1.07;0.83;;;12.10;99.90;;;;;;5072525;28;20411;-67
2022/09/27 00:03:30;;;;;;;1.97;1.23;;;12.10;99.90;;;;;;5073064;28;20487;-67
2022/09/27 00:06:09;;;;;;;1.03;0.90;;;12.20;99.90;;;;;;5072969;28;20448;-68
2022/09/27 00:08:35;;;;;;;1.37;1.27;;;12.20;99.90;;;;;;5073329;28;20746;-68
2022/09/27 00:11:04;;;;;;;1.77;1.20;;;12.10;99.90;;;;;;5073010;28;20408;-68
2022/09/27 00:13:29;;;;;;;0.93;0.80;;;12.10;99.90;;;;;;5071487;28;20444;-67
2022/09/27 00:16:00;;;;;;;2.03;1.10;;;12.10;99.90;;;;;;5072939;28;20404;-68
2022/09/27 00:18:26;;;;;;;1.13;0.97;;;12.00;99.90;;;;;;5070814;28;20219;-67
2022/09/27 00:20:52;;;;;;;1.80;1.00;;;12.10;99.90;;;;;;5072441;28;20400;-68
2022/09/27 00:23:18;;;;;;;1.37;0.80;;;12.10;99.90;;;;;;5072009;28;20436;-67
2022/09/27 00:25:57;;;;;;;1.27;0.97;;;12.10;99.90;;;;;;5072131;28;20445;-67
2022/09/27 00:28:23;;;;;;;1.77;1.10;;;12.20;99.90;;;;;;5072979;28;20433;-68
2022/09/27 00:30:49;;;;;;;1.73;0.93;;;12.30;99.90;;;;;;5072659;28;20414;-68
2022/09/27 00:33:15;;;;;;;1.33;1.00;;;12.40;99.90;;;;;;5072669;28;20782;-68
2022/09/27 00:35:40;;;;;;;0.80;0.67;;;12.40;99.90;;;;;;5072684;28;20536;-67
2022/09/27 00:38:06;;;;;;;1.37;0.80;;;12.20;99.90;;;;;;5079815;28;20651;-68
2022/09/27 00:40:32;;;;;;;1.10;0.80;;;12.20;99.90;;;;;;5078145;28;20173;-68
2022/09/27 00:42:57;;;;;;;1.97;0.80;;;12.00;99.90;;;;;;5073033;28;20725;-67
2022/09/27 00:45:23;;;;;;;1.20;1.00;;;11.90;99.90;;;;;;5073136;28;20619;-67
2022/09/27 00:47:51;;;;;;;3.07;1.10;;;12.00;99.90;;;;;;5072594;28;20166;-68
2022/09/27 00:50:33;;;;;;;1.00;0.83;;;12.10;99.90;;;;;;5073390;28;20168;-67
2022/09/27 00:53:51;;;;;;;2.03;0.93;;;12.10;99.90;;;;;;5072410;28;20454;-68
2022/09/27 00:56:23;;;;;;;1.10;0.80;;;12.10;99.90;;;;;;5038421;28;20457;-68
2022/09/27 00:59:14;;;;;;;0.97;0.70;;;12.00;99.90;;;;;;5072927;28;20388;-68
2022/09/27 01:01:40;;;;;;;1.10;0.90;;;12.10;99.90;;;;;;5075883;28;20400;-68
2022/09/27 01:04:09;;;;;;;1.77;0.80;;;12.10;99.90;;;;;;5076485;28;21020;-68
2022/09/27 01:06:36;;;;;;;1.03;0.93;;;12.20;99.90;;;;;;5076389;28;20196;-68
2022/09/27 01:09:01;;;;;;;1.10;0.83;;;12.10;99.90;;;;;;5076621;28;20435;-67
2022/09/27 01:11:34;;;;;;;1.67;0.73;;;12.10;99.90;;;;;;5076213;28;20401;-68
2022/09/27 01:14:09;;;;;;;1.30;0.80;;;12.10;99.90;;;;;;5076456;28;20546;-68
2022/09/27 01:16:53;;;;;;;0.73;0.67;;;12.00;99.90;;;;;;5076699;28;20396;-67
2022/09/27 01:19:38;;;;;;;1.33;0.97;;;12.20;99.90;;;;;;5076279;28;20407;-68
2022/09/27 01:22:23;;;;;;;1.83;0.90;;;12.20;99.90;;;;;;5076352;28;20908;-67
2022/09/27 01:25:00;;;;;;;1.10;0.83;;;12.20;99.90;;;;;;5075634;28;20404;-68
2022/09/27 01:27:34;;;;;;;1.67;0.90;;;12.20;99.90;;;;;;5075422;28;20547;-68
2022/09/27 01:30:24;;;;;;;2.23;1.10;;;12.10;99.90;;;;;;5075869;28;20397;-68
2022/09/27 01:33:00;;;;;;;0.97;0.67;;;12.30;99.90;;;;;;5076154;28;20416;-68
2022/09/27 01:35:45;;;;;;;1.10;1.00;;;12.40;99.90;;;;;;5076310;28;20397;-68
2022/09/27 01:38:34;;;;;;;1.30;1.17;;;12.40;99.90;;;;;;5065451;28;20449;-68
2022/09/27 01:41:16;;;;;;;1.00;0.80;;;12.60;99.90;;;;;;5076229;28;20398;-68
2022/09/27 01:44:01;;;;;;;0.90;0.80;;;12.70;99.90;;;;;;5075499;28;20420;-68
2022/09/27 01:46:38;;;;;;;0.80;0.70;;;12.60;99.90;;;;;;5076253;28;20899;-68
2022/09/27 01:49:10;;;;;;;1.13;0.77;;;12.40;99.90;;;;;;5076394;28;20441;-68
2022/09/27 01:51:48;;;;;;;1.30;1.00;;;12.60;99.90;;;;;;5075856;28;20387;-68
2022/09/27 01:54:22;;;;;;;0.80;0.70;;;12.60;99.90;;;;;;5076243;28;20821;-68
2022/09/27 01:56:53;;;;;;;0.90;0.70;;;12.50;99.90;;;;;;5075999;28;20400;-68
2022/09/27 01:59:24;;;;;;;0.97;0.80;;;12.60;99.90;;;;;;5074446;28;20423;-68
2022/09/27 02:01:51;;;;;;;1.00;0.90;;;12.60;99.90;;;;;;5074001;28;20412;-68
2022/09/27 02:04:23;;;;;;;0.70;0.60;;;12.70;99.90;;;;;;5090782;22;20575;-72
2022/09/27 02:06:58;;;;;;;0.70;0.60;;;12.80;99.90;;;;;;5076187;28;20431;-72
2022/09/27 02:09:34;;;;;;;1.00;0.80;;;12.80;99.90;;;;;;5074126;28;20400;-72
2022/09/27 02:12:04;;;;;;;1.03;0.70;;;12.80;99.90;;;;;;5075208;28;20495;-72
2022/09/27 02:14:54;;;;;;;1.30;0.80;;;12.90;99.90;;;;;;5075570;28;20504;-72
2022/09/27 02:17:37;;;;;;;1.00;0.60;;;12.90;99.90;;;;;;5075995;28;20381;-72
2022/09/27 02:20:28;;;;;;;0.80;0.63;;;12.90;99.90;;;;;;5074438;28;20418;-72
2022/09/27 02:23:02;;;;;;;1.73;0.70;;;12.90;99.90;;;;;;5068240;28;20440;-72
2022/09/27 02:25:41;;;;;;;1.10;0.70;;;12.90;99.90;;;;;;5076218;28;20809;-72
2022/09/27 02:28:24;;;;;;;1.47;0.80;;;12.90;99.90;;;;;;5074503;28;20432;-71
2022/09/27 02:30:51;;;;;;;0.90;0.70;;;12.90;99.90;;;;;;5076664;28;20385;-70
2022/09/27 02:33:19;;;;;;;2.67;0.70;;;12.70;99.90;;;;;;5075401;28;20996;-71
2022/09/27 02:35:45;;;;;;;2.60;0.80;;;12.40;99.90;;;;;;5076016;28;20904;-70
2022/09/27 02:38:10;;;;;;;2.50;0.90;;;12.10;99.90;;;;;;5075318;28;20494;-71
2022/09/27 02:40:45;;;;;;;1.00;0.60;;;11.80;99.90;;;;;;5074353;28;20667;-71
2022/09/27 02:43:14;;;;;;;3.10;0.80;;;11.70;99.90;;;;;;5075096;28;20185;-71
2022/09/27 02:45:59;;;;;;;2.50;0.80;;;11.70;99.90;;;;;;5073805;28;21027;-72
2022/09/27 02:48:43;;;;;;;1.87;0.83;;;11.80;99.90;;;;;;5075145;28;20747;-72
2022/09/27 02:51:35;;;;;;;1.23;1.00;;;11.70;99.90;;;;;;5075719;28;20404;-72
2022/09/27 02:54:16;;;;;;;0.80;0.80;;;11.80;99.90;;;;;;5075349;28;20420;-71
2022/09/27 02:57:06;;;;;;;2.17;0.60;;;11.60;99.90;;;;;;5075616;28;20758;-71
2022/09/27 02:59:38;;;;;;;1.17;0.80;;;11.60;99.90;;;;;;5055411;28;20487;-71
2022/09/27 03:02:29;;;;;;;0.90;0.70;;;11.50;99.90;;;;;;5055411;28;20386;-71
2022/09/27 03:04:59;;;;;;;1.23;0.60;;;11.50;99.90;;;;;;5075500;28;20400;-72
2022/09/27 03:07:25;;;;;;;1.53;0.60;;;11.50;99.90;;;;;;5076354;28;20797;-70
2022/09/27 03:09:53;;;;;;;1.10;0.67;;;11.30;99.90;;;;;;5075883;28;20416;-71
2022/09/27 03:12:26;;;;;;;1.23;0.80;;;11.30;99.90;;;;;;5076770;28;20169;-71
2022/09/27 03:14:55;;;;;;;0.87;0.63;;;11.30;99.90;;;;;;5075848;28;20427;-72
2022/09/27 03:17:21;;;;;;;0.90;0.73;;;11.20;99.90;;;;;;5073882;28;20929;-72
2022/09/27 03:19:47;;;;;;;0.80;0.80;;;11.30;99.90;;;;;;5074632;28;20428;-71
2022/09/27 03:22:13;;;;;;;1.23;0.80;;;11.40;99.90;;;;;;5075218;28;20455;-71
2022/09/27 03:24:39;;;;;;;1.33;0.67;;;11.40;99.90;;;;;;5075155;28;20465;-70
2022/09/27 03:27:04;;;;;;;1.60;0.60;;;11.70;99.90;;;;;;5075733;28;20236;-71
2022/09/27 03:29:31;;;;;;;1.70;0.80;;;11.80;99.90;;;;;;5089473;28;20727;-72
2022/09/27 03:31:56;;;;;;;1.80;0.80;;;11.60;99.90;;;;;;5073644;28;20520;-71
2022/09/27 03:34:22;;;;;;;1.10;0.87;;;11.60;99.90;;;;;;5074970;28;20426;-72
2022/09/27 03:36:48;;;;;;;0.90;0.70;;;11.70;99.90;;;;;;5074578;28;20167;-71
2022/09/27 03:39:13;;;;;;;2.43;0.70;;;11.50;99.90;;;;;;5074528;28;20665;-71
2022/09/27 03:41:40;;;;;;;1.20;0.70;;;11.50;99.90;;;;;;5074087;28;20446;-71
2022/09/27 03:44:06;;;;;;;1.00;0.80;;;11.40;99.90;;;;;;5074345;28;20216;-71
2022/09/27 03:46:31;;;;;;;1.97;0.83;;;11.30;99.90;;;;;;5074023;28;20479;-72
2022/09/27 03:48:57;;;;;;;2.23;0.90;;;11.40;99.90;;;;;;5074162;28;20407;-71
2022/09/27 03:51:22;;;;;;;1.33;0.90;;;11.30;99.90;;;;;;5074007;28;20503;-71
2022/09/27 03:53:48;;;;;;;6.43;1.77;;;11.40;99.90;;;;;;5073810;28;20178;-71
2022/09/27 03:56:14;;;;;;;1.67;0.90;;;11.40;99.90;;;;;;5073670;28;20195;-71
2022/09/27 03:58:39;;;;;;;1.70;1.00;;;11.30;99.90;;;;;;5073704;28;20178;-71
2022/09/27 04:01:05;;;;;;;3.00;1.43;;;11.40;99.90;;;;;;5073730;28;20162;-71
2022/09/27 04:03:30;;;;;;;3.00;1.10;;;11.50;99.90;;;;;;5073556;28;20212;-71
2022/09/27 04:05:56;;;;;;;3.17;1.87;;;11.50;99.90;;;;;;5073199;28;20247;-70
2022/09/27 04:08:22;;;;;;;4.57;2.90;;;11.40;99.90;;;;;;5073732;28;20691;-71
2022/09/27 04:10:48;;;;;;;2.00;1.40;;;11.50;99.90;;;;;;5073376;28;20213;-70
2022/09/27 04:13:13;;;;;;;5.40;4.70;;;11.50;99.90;;;;;;5073332;28;20847;-71
2022/09/27 04:15:39;;;;;;;101.40;75.40;;;11.70;99.90;;;;;;5069972;28;20223;-71
2022/09/27 04:18:05;;;;;;;23.93;16.27;;;11.80;99.90;;;;;;5073167;28;20176;-70
2022/09/27 04:20:32;;;;;;;6.33;4.37;;;11.80;99.90;;;;;;5073412;28;20179;-70
2022/09/27 04:22:57;;;;;;;138.97;78.73;;;11.80;99.90;;;;;;5073590;28;20419;-70
2022/09/27 04:25:23;;;;;;;47.83;30.57;;;11.90;99.90;;;;;;5073164;28;20408;-71
2022/09/27 04:27:54;;;;;;;19.13;13.33;;;11.90;99.90;;;;;;5070640;28;20182;-71
2022/09/27 04:30:20;;;;;;;6.40;3.80;;;11.80;99.90;;;;;;5072664;28;20160;-71
2022/09/27 04:32:46;;;;;;;12.43;9.87;;;11.70;99.90;;;;;;5073509;28;20428;-71
2022/09/27 04:37:58;;;;;;;6.83;4.00;;;11.90;99.90;;;;;;5074300;28;20510;-71
2022/09/27 04:40:24;;;;;;;37.70;34.60;;;12.00;99.90;;;;;;5073325;28;20411;-69
2022/09/27 04:42:50;;;;;;;7.90;5.13;;;12.00;99.90;;;;;;5073656;28;20416;-70
2022/09/27 04:45:17;;;;;;;5.00;2.53;;;12.10;99.90;;;;;;5072335;28;20165;-70
2022/09/27 04:47:45;;;;;;;4.50;4.20;;;11.80;99.90;;;;;;5072749;28;20396;-73
2022/09/27 04:50:12;;;;;;;3.90;2.83;;;11.90;99.90;;;;;;5063700;28;20422;-70
2022/09/27 04:52:37;;;;;;;3.93;2.40;;;11.60;99.90;;;;;;5063930;28;21018;-71
2022/09/27 04:55:04;;;;;;;5.10;2.03;;;11.50;99.90;;;;;;5063571;28;20767;-73
2022/09/27 04:57:29;;;;;;;4.27;2.50;;;11.40;99.90;;;;;;5073589;28;20611;-71
2022/09/27 04:59:57;;;;;;;3.00;2.63;;;11.60;99.90;;;;;;5072704;28;20446;-71
2022/09/27 05:02:23;;;;;;;4.83;2.67;;;11.60;99.90;;;;;;5073181;28;20599;-71
2022/09/27 05:04:49;;;;;;;4.80;2.47;;;11.70;99.90;;;;;;5074606;28;20460;-71
2022/09/27 05:07:14;;;;;;;3.20;1.90;;;11.70;99.90;;;;;;5073213;28;20190;-72
2022/09/27 05:09:40;;;;;;;2.70;2.03;;;11.80;99.90;;;;;;5076660;28;20166;-72
2022/09/27 05:12:07;;;;;;;4.73;2.20;;;11.90;99.90;;;;;;5075407;28;20505;-72
2022/09/27 05:14:33;;;;;;;2.40;2.03;;;11.90;99.90;;;;;;5072246;28;20472;-72
2022/09/27 05:16:59;;;;;;;2.23;2.00;;;11.90;99.90;;;;;;5074172;28;20833;-71
2022/09/27 05:19:24;;;;;;;3.10;1.90;;;11.70;99.90;;;;;;5073385;28;20886;-69
2022/09/27 05:21:50;;;;;;;3.10;2.20;;;11.80;99.90;;;;;;5072571;28;20303;-71
2022/09/27 05:24:15;;;;;;;3.33;2.20;;;11.70;99.90;;;;;;5072920;28;20182;-71
2022/09/27 05:26:41;;;;;;;3.20;2.17;;;11.60;99.90;;;;;;5072728;28;20202;-71
2022/09/27 05:29:07;;;;;;;3.40;2.10;;;11.80;99.90;;;;;;5087503;28;20181;-71
2022/09/27 05:31:32;;;;;;;3.63;1.50;;;11.80;99.90;;;;;;5072713;28;20192;-70
2022/09/27 05:33:58;;;;;;;2.83;1.40;;;11.80;99.90;;;;;;5072699;28;20186;-71
2022/09/27 05:36:23;;;;;;;5.20;2.40;;;11.70;99.90;;;;;;5072802;28;20180;-72
2022/09/27 05:38:49;;;;;;;5.47;2.10;;;11.70;99.90;;;;;;5072883;28;20167;-72
2022/09/27 05:41:15;;;;;;;4.43;2.33;;;11.70;99.90;;;;;;5073515;28;20170;-71
2022/09/27 05:43:40;;;;;;;3.27;1.50;;;11.70;99.90;;;;;;5072712;28;20197;-71
2022/09/27 05:46:06;;;;;;;4.77;2.07;;;11.60;99.90;;;;;;5072801;28;20198;-72
2022/09/27 05:48:32;;;;;;;3.27;2.03;;;11.70;99.90;;;;;;5075943;28;20245;-71
2022/09/27 05:50:58;;;;;;;1.60;1.50;;;11.60;99.90;;;;;;5076853;28;20169;-71
2022/09/27 05:53:24;;;;;;;2.77;1.40;;;11.60;99.90;;;;;;5076821;28;20189;-70
2022/09/27 05:55:50;;;;;;;2.67;1.80;;;11.70;99.90;;;;;;5076198;28;20465;-71
2022/09/27 05:58:16;;;;;;;2.30;1.60;;;11.50;99.90;;;;;;5076094;28;20822;-72
2022/09/27 06:00:42;;;;;;;4.63;1.60;;;11.40;99.90;;;;;;5075745;28;20461;-72
2022/09/27 06:03:11;;;;;;;2.50;1.60;;;11.40;99.90;;;;;;5076003;28;20225;-72
2022/09/27 06:05:39;;;;;;;1.80;1.40;;;11.40;99.90;;;;;;5075806;28;20435;-71
2022/09/27 06:08:08;;;;;;;2.30;1.43;;;11.30;99.90;;;;;;5075887;28;20402;-71
2022/09/27 06:10:34;;;;;;;2.50;1.60;;;11.50;99.90;;;;;;5075858;28;20778;-71
2022/09/27 06:13:01;;;;;;;3.60;1.50;;;11.50;99.90;;;;;;5074962;28;20421;-71
2022/09/27 06:15:28;;;;;;;1.80;1.43;;;11.50;99.90;;;;;;5075421;28;20161;-71
2022/09/27 06:17:54;;;;;;;2.00;1.17;;;11.40;99.90;;;;;;5075752;28;20403;-71
2022/09/27 06:20:20;;;;;;;2.03;1.37;;;11.30;99.90;;;;;;5076193;28;20469;-71
2022/09/27 06:22:46;;;;;;;6.37;1.77;;;11.40;99.90;;;;;;5075705;28;20428;-71
2022/09/27 06:25:12;;;;;;;2.30;1.87;;;11.50;99.90;;;;;;5075638;28;20162;-71
2022/09/27 06:27:38;;;;;;;2.13;1.60;;;11.60;99.90;;;;;;5075605;28;20219;-72
2022/09/27 06:30:04;;;;;;;1.93;1.50;;;11.80;99.90;;;;;;5074157;28;20508;-71
2022/09/27 06:32:30;;;;;;;2.30;1.37;;;11.70;99.90;;;;;;5073930;28;20169;-70
2022/09/27 06:34:56;;;;;;;1.20;1.10;;;11.70;99.90;;;;;;5075490;28;20479;-72
2022/09/27 06:37:25;;;;;;;1.97;1.13;;;11.70;99.90;;;;;;5075904;28;20494;-73
2022/09/27 06:39:52;;;;;;;2.17;1.60;;;11.80;99.90;;;;;;5075608;28;20166;-71
2022/09/27 06:42:18;;;;;;;1.90;1.27;;;12.00;99.90;;;;;;5075577;28;20420;-71
2022/09/27 06:44:46;;;;;;;2.33;1.10;;;12.00;99.90;;;;;;5075541;28;20751;-71
2022/09/27 06:47:12;;;;;;;3.80;1.40;;;12.10;99.90;;;;;;5074577;28;20443;-71
2022/09/27 06:49:38;;;;;;;2.93;1.60;;;12.10;99.90;;;;;;5075601;28;20414;-72
2022/09/27 06:52:05;;;;;;;1.40;1.17;;;12.10;99.90;;;;;;5075336;28;20417;-72
2022/09/27 06:54:30;;;;;;;2.40;1.10;;;12.00;99.90;;;;;;5075331;28;20420;-72
2022/09/27 06:56:56;;;;;;;2.40;1.07;;;11.70;99.90;;;;;;5076960;28;20416;-71
2022/09/27 07:02:05;;;;;;;1.20;1.10;;;11.80;99.90;;;;;;5074849;28;20166;-72
2022/09/27 07:04:31;;;;;;;1.43;1.00;;;11.90;99.90;;;;;;5075529;28;20950;-72
2022/09/27 07:06:57;;;;;;;1.63;1.00;;;11.80;99.90;;;;;;5075260;28;20195;-71
2022/09/27 07:09:23;;;;;;;1.57;1.00;;;11.90;99.90;;;;;;5075198;28;20202;-70
2022/09/27 07:11:48;;;;;;;1.80;1.20;;;12.00;99.90;;;;;;5075098;28;20655;-71
2022/09/27 07:14:16;;;;;;;1.00;0.80;;;12.00;99.90;;;;;;5075178;28;20219;-72
2022/09/27 07:16:42;;;;;;;3.13;1.30;;;12.10;99.90;;;;;;5074279;28;20415;-71
2022/09/27 07:19:10;;;;;;;1.40;1.30;;;12.10;99.90;;;;;;5074838;28;20412;-71
2022/09/27 07:21:36;;;;;;;2.10;1.00;;;12.10;99.90;;;;;;5074690;28;20506;-71
2022/09/27 07:24:01;;;;;;;1.97;0.90;;;12.10;99.90;;;;;;5074469;28;20510;-71
2022/09/27 07:26:27;;;;;;;1.63;1.23;;;12.20;99.90;;;;;;5074021;28;20232;-71
2022/09/27 07:28:53;;;;;;;3.20;1.30;;;12.20;99.90;;;;;;5074530;28;20167;-71
2022/09/27 07:31:18;;;;;;;1.67;1.23;;;12.10;99.90;;;;;;5073893;28;20166;-71
2022/09/27 07:33:44;;;;;;;1.00;0.70;;;12.00;99.90;;;;;;5074222;28;20262;-71
2022/09/27 07:36:11;;;;;;;1.43;1.20;;;12.10;99.90;;;;;;5074601;28;20613;-71
2022/09/27 07:38:37;;;;;;;1.77;0.73;;;12.10;99.90;;;;;;5074386;28;20169;-71
2022/09/27 07:41:12;;;;;;;1.47;0.80;;;11.90;99.90;;;;;;5074243;28;20906;-71
2022/09/27 07:43:39;;;;;;;0.80;0.60;;;12.00;99.90;;;;;;5074209;28;20209;-71
2022/09/27 07:46:05;;;;;;;1.10;0.70;;;11.90;99.90;;;;;;5071443;28;20456;-70
2022/09/27 07:48:31;;;;;;;0.90;0.70;;;11.90;99.90;;;;;;5073040;28;20518;-71
2022/09/27 07:50:56;;;;;;;2.10;0.70;;;12.10;99.90;;;;;;5072912;28;20962;-70
2022/09/27 07:53:23;;;;;;;1.30;0.90;;;12.00;99.90;;;;;;5074061;28;20502;-72
2022/09/27 07:55:52;;;;;;;2.60;0.97;;;11.90;99.90;;;;;;5073823;28;20625;-71
2022/09/27 07:58:18;;;;;;;1.33;0.77;;;11.70;99.90;;;;;;5073122;28;20437;-71
2022/09/27 08:00:44;;;;;;;1.57;0.80;;;11.80;99.90;;;;;;5073910;28;20441;-70
2022/09/27 08:03:15;;;;;;;1.50;1.00;;;11.80;99.90;;;;;;5096873;22;20579;-68
2022/09/27 08:05:42;;;;;;;3.17;1.87;;;12.00;99.90;;;;;;5072422;28;20259;-68
2022/09/27 08:08:08;;;;;;;2.27;0.70;;;12.30;99.90;;;;;;5067508;28;20502;-68
2022/09/27 08:10:34;;;;;;;3.00;1.30;;;12.60;99.90;;;;;;5072400;28;20448;-69
2022/09/27 08:13:02;;;;;;;15.03;3.57;;;12.60;99.90;;;;;;5064706;28;20409;-68
2022/09/27 08:15:28;;;;;;;1.40;0.90;;;12.50;99.90;;;;;;5072378;28;20852;-68
2022/09/27 08:17:54;;;;;;;4.43;1.40;;;12.50;99.90;;;;;;5073058;28;20408;-68
2022/09/27 08:20:20;;;;;;;1.30;1.00;;;12.40;99.90;;;;;;5073036;28;20907;-68
2022/09/27 08:22:45;;;;;;;1.90;1.00;;;12.20;99.90;;;;;;5072657;28;20392;-68
2022/09/27 08:25:11;;;;;;;1.57;1.30;;;12.10;99.90;;;;;;5071982;28;20584;-68
2022/09/27 08:27:37;;;;;;;1.17;0.90;;;12.10;99.90;;;;;;5073255;28;20363;-68
2022/09/27 08:30:03;;;;;;;6.27;1.33;;;12.10;99.90;;;;;;5072783;28;20633;-68
2022/09/27 08:32:29;;;;;;;0.83;0.80;;;12.00;99.90;;;;;;5072096;28;20174;-68
2022/09/27 08:34:55;;;;;;;2.27;0.70;;;12.10;99.90;;;;;;5071584;28;20458;-68
2022/09/27 08:37:21;;;;;;;0.83;0.67;;;12.20;99.90;;;;;;5073162;28;20447;-68
2022/09/27 08:39:47;;;;;;;1.73;0.80;;;12.40;99.90;;;;;;5073106;28;20456;-68
2022/09/27 08:42:33;;;;;;;1.67;1.00;;;12.60;99.90;;;;;;5073240;28;20174;-68
2022/09/27 08:45:27;;;;;;;1.13;1.03;;;12.70;99.90;;;;;;5072940;28;20600;-68
2022/09/27 08:47:57;;;;;;;2.53;1.07;;;12.80;99.90;;;;;;5072801;28;20945;-69
2022/09/27 08:50:40;;;;;;;3.20;0.90;;;12.80;99.90;;;;;;5072715;28;20404;-68
2022/09/27 08:53:32;;;;;;;1.23;1.07;;;12.90;99.90;;;;;;5072470;28;20427;-68
2022/09/27 08:56:02;;;;;;;1.57;1.03;;;12.70;99.90;;;;;;5072299;28;20760;-68
2022/09/27 08:58:39;;;;;;;4.43;1.30;;;12.80;99.90;;;;;;5073074;28;20414;-68
2022/09/27 09:01:11;;;;;;;3.60;0.90;;;12.50;99.90;;;;;;5072430;28;20389;-68
2022/09/27 09:03:43;;;;;;;1.47;1.00;;;12.40;99.90;;;;;;5072455;28;20446;-68
2022/09/27 09:06:28;;;;;;;3.40;1.10;;;12.50;99.90;;;;;;5072831;28;20454;-68
2022/09/27 09:09:13;;;;;;;1.53;0.73;;;12.50;99.90;;;;;;5072886;28;20958;-69
2022/09/27 09:15:09;;;;;;;1.10;0.77;;;12.40;99.90;;;;;;5072789;28;20478;-69
2022/09/27 09:17:53;;;;;;;1.17;0.83;;;12.60;99.90;;;;;;5072726;28;20789;-67
2022/09/27 09:20:25;;;;;;;2.50;1.00;;;12.80;99.90;;;;;;5072875;28;20789;-69
2022/09/27 09:23:18;;;;;;;1.17;0.77;;;12.90;99.90;;;;;;5076171;28;20431;-69
2022/09/27 09:25:59;;;;;;;1.50;1.00;;;13.20;99.90;;;;;;5076473;28;20917;-68
2022/09/27 09:28:44;;;;;;;1.13;0.67;;;13.40;99.90;;;;;;5056785;28;20382;-69
2022/09/27 09:31:50;;;;;;;1.03;0.90;;;13.20;99.90;;;;;;5056624;28;20485;-69
2022/09/27 09:34:27;;;;;;;1.07;0.80;;;13.40;99.90;;;;;;5054807;28;20423;-69
2022/09/27 09:36:59;;;;;;;3.03;1.00;;;13.30;99.90;;;;;;5056608;28;20385;-68
2022/09/27 09:39:33;;;;;;;2.60;1.00;;;13.30;99.90;;;;;;5056371;28;20416;-69
2022/09/27 09:42:26;;;;;;;4.60;1.80;;;13.30;99.90;;;;;;5055868;28;20794;-69
2022/09/27 09:45:15;;;;;;;1.90;1.43;;;13.20;99.90;;;;;;5056331;28;20799;-69
2022/09/27 09:48:14;;;;;;;2.30;1.20;;;13.10;99.90;;;;;;5055572;28;20807;-68
2022/09/27 09:50:47;;;;;;;2.87;1.33;;;13.20;99.90;;;;;;5056049;28;20917;-68
2022/09/27 09:53:28;;;;;;;1.80;1.40;;;13.30;99.90;;;;;;5056133;28;20778;-68
2022/09/27 09:55:59;;;;;;;5.20;1.83;;;13.30;99.90;;;;;;5056102;28;20472;-68
2022/09/27 09:58:38;;;;;;;1.80;1.13;;;13.40;99.90;;;;;;5055505;28;20391;-68
2022/09/27 10:01:19;;;;;;;2.80;1.60;;;13.60;99.90;;;;;;5057959;28;20399;-69
2022/09/27 10:03:45;;;;;;;7.40;1.67;;;13.80;99.90;;;;;;5075635;28;20455;-69
2022/09/27 10:06:13;;;;;;;2.50;1.40;;;13.70;99.90;;;;;;5075869;28;20453;-69
2022/09/27 10:08:39;;;;;;;3.00;1.67;;;13.50;99.90;;;;;;5075894;28;20430;-69
2022/09/27 10:11:06;;;;;;;1.70;1.27;;;13.50;99.90;;;;;;5074685;28;20979;-69
2022/09/27 10:13:34;;;;;;;2.40;1.50;;;13.80;99.90;;;;;;5075570;28;20428;-69
2022/09/27 10:16:07;;;;;;;2.57;1.17;;;14.00;99.90;;;;;;5075266;28;20442;-67
2022/09/27 10:18:37;;;;;;;4.27;1.37;;;14.10;99.90;;;;;;5073507;28;20401;-69
2022/09/27 10:21:06;;;;;;;4.50;1.63;;;14.40;99.90;;;;;;5075499;28;20415;-68
2022/09/27 10:23:32;;;;;;;2.13;1.30;;;14.90;99.90;;;;;;5075363;28;20434;-69
2022/09/27 10:26:01;;;;;;;1.83;1.13;;;14.70;99.90;;;;;;5075190;28;20454;-68
2022/09/27 10:28:32;;;;;;;2.40;1.20;;;14.20;99.90;;;;;;5075167;28;20583;-68
2022/09/27 10:31:04;;;;;;;2.17;1.20;;;14.20;99.90;;;;;;5074959;28;20515;-69
2022/09/27 10:33:31;;;;;;;3.60;1.40;;;14.10;99.90;;;;;;5074175;28;20495;-69
2022/09/27 10:35:57;;;;;;;2.10;1.63;;;14.10;99.90;;;;;;5075418;28;20490;-67
2022/09/27 10:38:36;;;;;;;1.43;1.07;;;13.90;99.90;;;;;;5075476;28;20418;-68
2022/09/27 10:41:25;;;;;;;1.40;1.20;;;14.00;99.90;;;;;;5075392;28;20412;-68
2022/09/27 10:43:51;;;;;;;1.57;1.00;;;14.10;99.90;;;;;;5074950;28;20431;-68
2022/09/27 10:46:22;;;;;;;3.43;1.40;;;14.10;99.90;;;;;;5075064;28;20444;-68
2022/09/27 10:49:06;;;;;;;1.37;1.20;;;14.30;99.90;;;;;;5074775;28;20164;-68
2022/09/27 10:51:32;;;;;;;1.70;1.30;;;14.40;99.90;;;;;;5075343;28;20810;-69
2022/09/27 10:53:59;;;;;;;1.83;1.37;;;14.50;99.90;;;;;;5074786;28;20455;-68
2022/09/27 10:56:34;;;;;;;2.23;1.30;;;14.70;99.90;;;;;;5074895;28;20497;-68
2022/09/27 10:59:01;;;;;;;2.03;1.00;;;14.60;99.90;;;;;;5074374;28;20435;-69
2022/09/27 11:01:44;;;;;;;1.83;1.13;;;15.00;99.90;;;;;;5073380;28;20442;-68
2022/09/27 11:04:21;;;;;;;3.50;1.37;;;14.90;99.90;;;;;;5074124;28;20893;-68
2022/09/27 11:06:48;;;;;;;3.70;1.30;;;14.80;99.90;;;;;;5073406;28;20462;-68
2022/09/27 11:09:17;;;;;;;2.33;1.57;;;15.00;99.90;;;;;;5074985;28;20404;-67
2022/09/27 11:11:44;;;;;;;2.33;1.40;;;14.80;99.90;;;;;;5074910;28;20426;-69
2022/09/27 11:14:20;;;;;;;2.00;1.30;;;15.00;99.90;;;;;;5073410;28;20445;-69
2022/09/27 11:17:08;;;;;;;1.23;0.93;;;15.30;99.90;;;;;;5075006;28;20494;-70
2022/09/27 11:19:57;;;;;;;2.00;1.30;;;15.70;99.90;;;;;;5054915;28;20426;-69
2022/09/27 11:22:49;;;;;;;1.23;1.00;;;15.60;99.90;;;;;;5054287;28;20459;-69
2022/09/27 11:25:33;;;;;;;3.87;2.40;;;15.50;99.90;;;;;;5054763;28;20762;-71
2022/09/27 11:28:04;;;;;;;5.40;1.37;;;15.70;99.90;;;;;;5054909;28;20433;-69
2022/09/27 11:31:06;;;;;;;1.40;1.10;;;15.40;99.90;;;;;;5073310;28;20399;-69
2022/09/27 11:33:57;;;;;;;2.40;1.00;;;15.30;99.90;;;;;;5077488;28;20460;-69
2022/09/27 11:36:57;;;;;;;1.87;0.70;;;15.60;99.90;;;;;;5060666;28;20413;-69
2022/09/27 11:39:35;;;;;;;4.20;1.50;;;15.60;99.90;;;;;;5061392;28;20470;-69
2022/09/27 11:42:25;;;;;;;1.70;0.93;;;15.80;99.90;;;;;;5060960;28;20410;-69
2022/09/27 11:45:00;;;;;;;1.13;0.77;;;15.70;99.90;;;;;;5059647;28;20424;-69
2022/09/27 11:48:14;;;;;;;0.90;0.60;;;15.30;99.90;;;;;;5072977;28;20448;-69
2022/09/27 11:51:06;;;;;;;2.10;0.80;;;15.30;99.90;;;;;;5067921;28;20805;-69
2022/09/27 11:53:57;;;;;;;3.53;1.00;;;15.80;99.90;;;;;;5078095;28;20974;-69
2022/09/27 11:56:47;;;;;;;1.23;0.90;;;15.80;99.90;;;;;;5076674;28;20468;-69
2022/09/27 11:59:29;;;;;;;2.60;1.20;;;16.10;99.90;;;;;;5074129;28;20378;-68
2022/09/27 12:02:12;;;;;;;2.10;0.87;;;15.80;99.90;;;;;;5073550;28;20736;-69
2022/09/27 12:04:47;;;;;;;1.03;0.93;;;15.70;99.90;;;;;;5073586;28;20464;-69
2022/09/27 12:07:50;;;;;;;2.03;0.90;;;15.60;99.90;;;;;;5073641;28;20453;-69
2022/09/27 12:10:17;;;;;;;1.20;0.90;;;14.90;99.90;;;;;;5064674;28;20422;-69
2022/09/27 12:12:49;;;;;;;1.37;0.80;;;14.30;99.90;;;;;;5073497;28;20497;-69
2022/09/27 12:15:32;;;;;;;1.80;0.70;;;14.30;99.90;;;;;;5072271;28;20419;-69
2022/09/27 12:18:15;;;;;;;1.03;0.70;;;14.00;99.90;;;;;;5073468;28;20394;-68
2022/09/27 12:20:42;;;;;;;2.23;0.80;;;13.40;99.90;;;;;;5073441;28;20392;-68
2022/09/27 12:23:20;;;;;;;1.73;0.70;;;12.80;99.90;;;;;;5072900;28;20430;-68
2022/09/27 12:25:52;;;;;;;4.97;3.90;;;12.50;99.90;;;;;;5072653;28;20833;-68
2022/09/27 12:28:24;;;;;;;1.57;0.70;;;12.20;99.90;;;;;;5073226;28;20471;-68
2022/09/27 12:30:56;;;;;;;1.83;0.80;;;12.00;99.90;;;;;;5073260;28;20859;-69
2022/09/27 12:33:42;;;;;;;2.33;1.37;;;11.80;99.90;;;;;;5072865;28;20787;-69
2022/09/27 12:36:15;;;;;;;4.10;1.10;;;11.80;99.90;;;;;;5053132;28;20792;-71
2022/09/27 12:39:00;;;;;;;1.10;0.80;;;11.90;99.90;;;;;;5053015;28;20453;-67
2022/09/27 12:41:32;;;;;;;2.40;1.17;;;12.20;99.90;;;;;;5053188;28;20872;-69
2022/09/27 12:43:58;;;;;;;1.53;1.23;;;12.40;99.90;;;;;;5052771;28;20793;-68
2022/09/27 12:46:50;;;;;;;7.70;1.37;;;12.50;99.90;;;;;;5052762;28;20453;-69
2022/09/27 12:49:41;;;;;;;0.90;0.70;;;12.60;99.90;;;;;;5052975;28;20464;-69
2022/09/27 12:52:21;;;;;;;4.60;1.10;;;13.00;99.90;;;;;;5053011;28;20386;-69
2022/09/27 12:54:53;;;;;;;1.30;0.80;;;13.00;99.90;;;;;;5053008;28;20484;-69
2022/09/27 12:57:42;;;;;;;2.23;0.93;;;13.00;99.90;;;;;;5052289;28;20496;-69
2022/09/27 13:00:19;;;;;;;2.63;1.00;;;13.60;99.90;;;;;;5053957;28;20861;-69
2022/09/27 13:03:35;;;;;;;1.27;0.90;;;14.00;99.90;;;;;;5052629;28;20392;-69
2022/09/27 13:06:24;;;;;;;0.90;0.60;;;14.70;99.90;;;;;;5018416;28;20958;-69
2022/09/27 13:09:20;;;;;;;1.40;0.90;;;15.40;99.90;;;;;;5052548;28;20396;-69
2022/09/27 13:12:17;;;;;;;0.97;0.70;;;15.40;99.90;;;;;;5052560;28;20890;-69
2022/09/27 13:14:56;;;;;;;1.20;0.70;;;15.30;99.90;;;;;;5052447;28;20429;-68
2022/09/27 13:17:40;;;;;;;1.50;0.80;;;14.40;99.90;;;;;;5052916;28;20752;-68
2022/09/27 13:20:30;;;;;;;1.20;0.90;;;13.70;99.90;;;;;;5051787;28;20414;-68
2022/09/27 13:23:15;;;;;;;1.80;0.87;;;13.40;99.90;;;;;;5056694;28;20467;-68